createdAt,value
2017-08-30T00:01:14.092Z,89.66
2017-08-30T00:03:41.931Z,90.68
2017-08-30T00:06:09.739Z,90.71
2017-08-30T00:08:37.556Z,90.27
2017-08-30T00:11:05.362Z,90.17
2017-08-30T00:13:33.157Z,89.76
2017-08-30T00:16:00.984Z,89.57
2017-08-30T00:18:28.787Z,89.47
2017-08-30T00:20:56.668Z,89.42
2017-08-30T00:23:24.461Z,89.89
2017-08-30T00:26:04.006Z,90.61
2017-08-30T00:28:31.784Z,91.64
2017-08-30T00:30:59.639Z,90.73
2017-08-30T00:33:27.451Z,90.46
2017-08-30T00:35:55.272Z,90.25
2017-08-30T00:38:23.096Z,89.94
2017-08-30T00:40:50.988Z,90.34
2017-08-30T00:43:18.865Z,90.73
2017-08-30T00:45:46.734Z,90.64
2017-08-30T00:48:14.646Z,90.16
2017-08-30T00:50:42.488Z,89.77
2017-08-30T00:53:10.389Z,89.82
2017-08-30T00:55:38.252Z,89.83
2017-08-30T00:58:06.143Z,89.87
2017-08-30T01:00:34.023Z,90.09
2017-08-30T01:03:01.934Z,90.69
2017-08-30T01:05:29.807Z,90.78
2017-08-30T01:07:57.728Z,90.95
2017-08-30T01:10:25.460Z,90.70
2017-08-30T01:12:53.352Z,90.08
2017-08-30T01:15:21.199Z,90.78
2017-08-30T01:17:49.037Z,92.11
2017-08-30T01:20:16.940Z,92.69
2017-08-30T01:22:44.772Z,92.60
2017-08-30T01:25:12.726Z,92.57
2017-08-30T01:27:40.565Z,92.20
2017-08-30T01:30:08.460Z,92.29
2017-08-30T01:32:36.284Z,92.41
2017-08-30T01:35:04.165Z,91.82
2017-08-30T01:37:31.984Z,91.32
2017-08-30T01:39:59.836Z,91.03
2017-08-30T01:42:27.713Z,90.86
2017-08-30T01:44:55.555Z,91.18
2017-08-30T01:47:23.425Z,91.69
2017-08-30T01:49:51.262Z,91.49
2017-08-30T01:52:19.145Z,91.34
2017-08-30T01:54:47.040Z,91.06
2017-08-30T01:57:14.924Z,91.19
2017-08-30T01:59:42.792Z,91.65
2017-08-30T02:02:10.689Z,92.22
2017-08-30T02:04:38.522Z,92.38
2017-08-30T02:07:06.351Z,92.19
2017-08-30T02:09:34.208Z,91.98
2017-08-30T02:12:02.031Z,91.39
2017-08-30T02:14:29.914Z,91.98
2017-08-30T02:16:57.758Z,92.82
2017-08-30T02:19:25.541Z,93.11
2017-08-30T02:21:53.406Z,93.33
2017-08-30T02:24:21.290Z,93.62
2017-08-30T02:26:49.046Z,93.55
2017-08-30T02:29:16.888Z,93.20
2017-08-30T02:31:44.659Z,92.57
2017-08-30T02:34:12.414Z,92.70
2017-08-30T02:36:40.292Z,92.66
2017-08-30T02:39:08.026Z,92.44
2017-08-30T02:41:35.904Z,92.94
2017-08-30T02:44:03.740Z,93.16
2017-08-30T02:46:31.621Z,92.96
2017-08-30T02:48:59.452Z,92.37
2017-08-30T02:51:27.281Z,91.95
2017-08-30T02:53:55.054Z,91.74
2017-08-30T02:56:22.889Z,91.42
2017-08-30T02:58:50.768Z,91.69
2017-08-30T03:01:18.608Z,92.42
2017-08-30T03:03:46.483Z,93.15
2017-08-30T03:06:14.305Z,93.53
2017-08-30T03:08:42.192Z,93.51
2017-08-30T03:11:10.034Z,93.74
2017-08-30T03:13:37.872Z,93.99
2017-08-30T03:16:05.728Z,93.71
2017-08-30T03:18:33.605Z,93.45
2017-08-30T03:21:01.561Z,93.71
2017-08-30T03:23:29.402Z,93.81
2017-08-30T03:25:57.192Z,93.90
2017-08-30T03:28:25.025Z,94.26
2017-08-30T03:30:52.907Z,94.21
2017-08-30T03:33:20.753Z,93.70
2017-08-30T03:35:48.540Z,93.60
2017-08-30T03:38:16.388Z,93.46
2017-08-30T03:40:44.295Z,92.99
2017-08-30T03:43:12.046Z,92.60
2017-08-30T03:45:39.879Z,92.33
2017-08-30T03:48:07.760Z,92.20
2017-08-30T03:50:35.579Z,92.54
2017-08-30T03:53:03.451Z,92.62
2017-08-30T03:55:31.280Z,92.58
2017-08-30T03:57:59.192Z,93.18
2017-08-30T04:00:27.047Z,93.23
2017-08-30T04:02:54.928Z,93.42
2017-08-30T04:05:22.765Z,93.40
2017-08-30T04:07:50.682Z,93.20
2017-08-30T04:10:19.273Z,92.63
2017-08-30T04:12:47.116Z,92.25
2017-08-30T04:15:15.070Z,92.28
2017-08-30T04:17:42.928Z,92.16
2017-08-30T04:20:10.871Z,92.47
2017-08-30T04:22:38.701Z,92.75
2017-08-30T04:25:06.534Z,92.91
2017-08-30T04:27:34.410Z,93.12
2017-08-30T04:30:02.335Z,93.56
2017-08-30T04:32:30.185Z,93.87
2017-08-30T04:34:57.981Z,93.59
2017-08-30T04:37:25.758Z,92.91
2017-08-30T04:39:53.491Z,92.76
2017-08-30T04:42:21.291Z,93.38
2017-08-30T04:44:49.044Z,93.71
2017-08-30T04:47:16.816Z,93.61
2017-08-30T04:49:44.579Z,93.29
2017-08-30T04:52:12.443Z,93.44
2017-08-30T04:54:40.189Z,93.42
2017-08-30T04:57:08.017Z,92.90
2017-08-30T04:59:35.752Z,91.86
2017-08-30T05:02:03.471Z,90.17
2017-08-30T05:04:31.251Z,88.57
2017-08-30T05:06:58.983Z,87.97
2017-08-30T05:09:26.794Z,87.88
2017-08-30T05:11:54.529Z,88.12
2017-08-30T05:14:22.314Z,88.42
2017-08-30T05:16:50.040Z,88.41
2017-08-30T05:19:17.819Z,88.61
2017-08-30T05:21:45.566Z,88.71
2017-08-30T05:24:13.348Z,88.83
2017-08-30T05:26:41.100Z,88.82
2017-08-30T05:29:08.824Z,89.14
2017-08-30T05:31:36.609Z,89.70
2017-08-30T05:34:04.409Z,89.83
2017-08-30T05:36:32.196Z,89.59
2017-08-30T05:38:59.941Z,89.18
2017-08-30T05:41:27.765Z,88.57
2017-08-30T05:43:55.518Z,88.67
2017-08-30T05:46:23.318Z,88.51
2017-08-30T05:48:51.096Z,88.30
2017-08-30T05:51:18.894Z,88.19
2017-08-30T05:53:46.639Z,88.05
2017-08-30T05:56:14.416Z,87.56
2017-08-30T05:58:42.176Z,86.78
2017-08-30T06:01:09.993Z,86.61
2017-08-30T06:03:37.807Z,85.87
2017-08-30T06:06:05.581Z,85.67
2017-08-30T06:08:33.407Z,85.75
2017-08-30T06:11:01.155Z,85.76
2017-08-30T06:13:28.931Z,85.83
2017-08-30T06:15:56.708Z,85.93
2017-08-30T06:18:24.493Z,85.93
2017-08-30T06:20:52.240Z,86.08
2017-08-30T06:23:20.048Z,86.02
2017-08-30T06:25:47.784Z,85.89
2017-08-30T06:28:15.520Z,85.56
2017-08-30T06:30:43.317Z,85.69
2017-08-30T06:33:11.116Z,85.49
2017-08-30T06:35:38.941Z,84.97
2017-08-30T06:38:06.676Z,84.77
2017-08-30T06:40:34.465Z,84.64
2017-08-30T06:43:02.198Z,83.99
2017-08-30T06:45:30.031Z,83.24
2017-08-30T06:47:57.774Z,83.94
2017-08-30T06:50:25.571Z,83.05
2017-08-30T06:52:53.320Z,81.89
2017-08-30T06:55:21.062Z,81.42
2017-08-30T06:57:48.860Z,81.02
2017-08-30T07:00:16.597Z,80.82
2017-08-30T07:02:44.369Z,80.96
2017-08-30T07:05:12.124Z,80.39
2017-08-30T07:07:39.922Z,80.09
2017-08-30T07:10:07.679Z,79.86
2017-08-30T07:12:35.445Z,79.49
2017-08-30T07:15:03.219Z,79.07
2017-08-30T07:17:31.010Z,78.12
2017-08-30T07:19:58.761Z,76.70
2017-08-30T07:22:26.540Z,76.09
2017-08-30T07:24:54.256Z,75.65
2017-08-30T07:27:22.077Z,76.93
2017-08-30T07:29:49.810Z,75.60
2017-08-30T07:32:17.533Z,73.95
2017-08-30T07:34:45.323Z,73.82
2017-08-30T07:37:13.081Z,74.06
2017-08-30T07:39:40.856Z,74.15
2017-08-30T07:42:08.598Z,74.16
2017-08-30T07:44:36.409Z,73.33
2017-08-30T07:47:04.194Z,73.19
2017-08-30T07:49:31.985Z,73.00
2017-08-30T07:51:59.733Z,71.20
2017-08-30T07:54:27.552Z,70.88
2017-08-30T07:56:55.313Z,70.93
2017-08-30T07:59:23.153Z,71.55
2017-08-30T08:01:50.904Z,69.87
2017-08-30T08:04:18.649Z,68.93
2017-08-30T08:06:46.466Z,69.65
2017-08-30T08:09:14.211Z,68.92
2017-08-30T08:11:42.009Z,68.46
2017-08-30T08:14:09.770Z,67.98
2017-08-30T08:16:37.602Z,68.67
2017-08-30T08:19:05.457Z,66.59
2017-08-30T08:21:33.264Z,67.87
2017-08-30T08:24:01.119Z,67.72
2017-08-30T08:26:30.032Z,65.93
2017-08-30T08:28:57.892Z,67.24
2017-08-30T08:31:25.701Z,65.99
2017-08-30T08:33:53.559Z,66.48
2017-08-30T08:36:21.452Z,66.08
2017-08-30T08:38:49.298Z,67.07
2017-08-30T08:41:17.143Z,64.93
2017-08-30T08:43:44.937Z,65.58
2017-08-30T08:46:12.679Z,63.55
2017-08-30T08:48:40.487Z,63.00
2017-08-30T08:51:08.235Z,64.50
2017-08-30T08:53:36.053Z,64.70
2017-08-30T08:56:03.783Z,62.67
2017-08-30T08:58:31.590Z,62.83
2017-08-30T09:00:59.379Z,62.43
2017-08-30T09:03:27.267Z,61.39
2017-08-30T09:05:55.133Z,61.52
2017-08-30T09:08:22.880Z,61.53
2017-08-30T09:10:50.656Z,60.96
2017-08-30T09:13:18.516Z,60.21
2017-08-30T09:15:46.415Z,60.89
2017-08-30T09:18:14.256Z,58.94
2017-08-30T09:20:42.111Z,58.55
2017-08-30T09:23:09.959Z,58.48
2017-08-30T09:25:37.884Z,59.47
2017-08-30T09:28:05.749Z,60.22
2017-08-30T09:30:33.648Z,60.66
2017-08-30T09:33:01.509Z,61.79
2017-08-30T09:35:29.388Z,61.19
2017-08-30T09:37:57.268Z,61.03
2017-08-30T09:40:25.133Z,60.68
2017-08-30T09:42:53.064Z,62.11
2017-08-30T09:45:20.939Z,63.05
2017-08-30T09:47:48.847Z,61.39
2017-08-30T09:50:16.781Z,60.07
2017-08-30T09:52:44.677Z,59.20
2017-08-30T09:55:12.442Z,58.95
2017-08-30T09:57:40.271Z,58.35
2017-08-30T10:00:08.132Z,57.83
2017-08-30T10:02:36.028Z,57.95
2017-08-30T10:05:03.871Z,58.78
2017-08-30T10:07:31.781Z,58.96
2017-08-30T10:09:59.779Z,57.96
2017-08-30T10:12:27.675Z,57.44
2017-08-30T10:14:55.545Z,58.93
2017-08-30T10:17:23.467Z,59.44
2017-08-30T10:19:51.324Z,59.16
2017-08-30T10:22:19.137Z,58.66
2017-08-30T10:24:46.950Z,58.50
2017-08-30T10:27:14.842Z,58.48
2017-08-30T10:29:42.721Z,57.78
2017-08-30T10:32:10.572Z,57.81
2017-08-30T10:34:38.463Z,57.97
2017-08-30T10:37:06.242Z,58.60
2017-08-30T10:39:34.151Z,58.00
2017-08-30T10:42:02.031Z,57.30
2017-08-30T10:44:29.917Z,57.43
2017-08-30T10:46:57.776Z,58.29
2017-08-30T10:49:25.613Z,58.00
2017-08-30T10:51:53.458Z,58.63
2017-08-30T10:54:22.184Z,58.04
2017-08-30T10:56:50.099Z,58.41
2017-08-30T10:59:17.942Z,59.14
2017-08-30T11:01:45.777Z,57.51
2017-08-30T11:04:13.653Z,57.94
2017-08-30T11:06:41.706Z,56.41
2017-08-30T11:09:09.465Z,57.13
2017-08-30T11:11:38.061Z,57.88
2017-08-30T11:14:05.842Z,55.31
2017-08-30T11:16:33.642Z,55.75
2017-08-30T11:19:01.507Z,57.92
2017-08-30T11:21:29.463Z,56.09
2017-08-30T11:23:57.318Z,57.60
2017-08-30T11:26:25.212Z,57.32
2017-08-30T11:28:53.056Z,57.21
2017-08-30T11:31:20.937Z,56.83
2017-08-30T11:33:48.831Z,57.13
2017-08-30T11:36:16.576Z,55.96
2017-08-30T11:38:44.359Z,56.85
2017-08-30T11:41:12.120Z,54.55
2017-08-30T11:43:39.933Z,56.18
2017-08-30T11:46:07.745Z,55.50
2017-08-30T11:48:35.552Z,55.62
2017-08-30T11:51:03.341Z,55.17
2017-08-30T11:53:31.113Z,54.16
2017-08-30T11:55:58.858Z,52.99
2017-08-30T11:58:26.716Z,52.45
2017-08-30T12:00:54.455Z,53.89
2017-08-30T12:03:22.242Z,53.88
2017-08-30T12:05:49.986Z,52.97
2017-08-30T12:08:17.739Z,55.22
2017-08-30T12:10:45.549Z,56.86
2017-08-30T12:13:13.301Z,56.72
2017-08-30T12:15:41.086Z,52.67
2017-08-30T12:18:08.842Z,52.09
2017-08-30T12:20:36.708Z,51.72
2017-08-30T12:23:04.483Z,52.17
2017-08-30T12:25:32.312Z,54.13
2017-08-30T12:28:00.120Z,53.74
2017-08-30T12:30:28.114Z,54.16
2017-08-30T12:32:55.901Z,52.58
2017-08-30T12:35:23.744Z,54.23
2017-08-30T12:37:57.164Z,53.31
2017-08-30T12:40:25.005Z,53.90
2017-08-30T12:42:52.863Z,54.21
2017-08-30T12:45:20.755Z,54.76
2017-08-30T12:47:49.145Z,54.38
2017-08-30T12:50:17.074Z,53.51
2017-08-30T12:52:44.884Z,52.47
2017-08-30T12:55:12.762Z,52.04
2017-08-30T12:57:40.587Z,51.68
2017-08-30T13:00:08.377Z,53.03
2017-08-30T13:02:36.184Z,53.29
2017-08-30T13:05:03.980Z,53.64
2017-08-30T13:07:31.889Z,53.12
2017-08-30T13:09:59.744Z,54.62
2017-08-30T13:12:27.571Z,52.54
2017-08-30T13:14:55.354Z,53.32
2017-08-30T13:17:23.151Z,55.68
2017-08-30T13:19:51.022Z,54.69
2017-08-30T13:22:19.009Z,53.15
2017-08-30T13:24:46.866Z,52.33
2017-08-30T13:27:14.633Z,52.65
2017-08-30T13:29:42.536Z,52.83
2017-08-30T13:32:10.355Z,53.01
2017-08-30T13:34:38.160Z,52.46
2017-08-30T13:37:05.917Z,52.13
2017-08-30T13:39:33.733Z,52.63
2017-08-30T13:42:01.490Z,52.00
2017-08-30T13:44:29.276Z,51.23
2017-08-30T13:46:57.147Z,50.71
2017-08-30T13:49:24.956Z,51.59
2017-08-30T13:51:52.700Z,50.99
2017-08-30T13:54:20.662Z,49.34
2017-08-30T13:56:48.414Z,48.99
2017-08-30T13:59:16.360Z,50.18
2017-08-30T14:01:44.241Z,49.50
2017-08-30T14:04:12.108Z,48.20
2017-08-30T14:06:40.029Z,50.52
2017-08-30T14:09:07.896Z,48.84
2017-08-30T14:11:35.810Z,49.06
2017-08-30T14:14:03.668Z,49.12
2017-08-30T14:16:31.593Z,49.86
2017-08-30T14:18:59.445Z,51.18
2017-08-30T14:21:27.410Z,50.28
2017-08-30T14:23:55.153Z,48.81
2017-08-30T14:26:22.989Z,49.75
2017-08-30T14:28:50.873Z,48.87
2017-08-30T14:31:18.803Z,49.79
2017-08-30T14:33:46.674Z,50.24
2017-08-30T14:36:14.577Z,50.61
2017-08-30T14:38:42.322Z,50.82
2017-08-30T14:41:10.180Z,50.53
2017-08-30T14:43:38.126Z,50.16
2017-08-30T14:46:05.961Z,50.52
2017-08-30T14:48:33.850Z,51.06
2017-08-30T14:51:01.703Z,50.44
2017-08-30T14:53:29.630Z,50.92
2017-08-30T14:55:57.494Z,50.73
2017-08-30T14:58:25.385Z,50.89
2017-08-30T15:00:53.248Z,51.43
2017-08-30T15:03:21.134Z,52.17
2017-08-30T15:05:49.024Z,52.14
2017-08-30T15:08:16.913Z,51.70
2017-08-30T15:10:44.784Z,52.40
2017-08-30T15:13:12.700Z,52.81
2017-08-30T15:15:40.574Z,54.96
2017-08-30T15:18:08.501Z,53.93
2017-08-30T15:20:36.417Z,55.40
2017-08-30T15:23:04.334Z,55.69
2017-08-30T15:25:32.231Z,55.44
2017-08-30T15:28:00.088Z,56.11
2017-08-30T15:30:27.964Z,55.59
2017-08-30T15:32:55.834Z,55.02
2017-08-30T15:35:23.780Z,55.18
2017-08-30T15:37:51.609Z,54.86
2017-08-30T15:40:19.540Z,54.55
2017-08-30T15:42:47.404Z,54.74
2017-08-30T15:45:15.295Z,54.12
2017-08-30T15:47:43.185Z,54.29
2017-08-30T15:50:11.145Z,54.50
2017-08-30T15:52:39.017Z,54.61
2017-08-30T15:55:06.987Z,54.76
2017-08-30T15:57:34.860Z,55.09
2017-08-30T16:00:02.736Z,55.57
2017-08-30T16:02:30.627Z,55.26
2017-08-30T16:04:58.489Z,54.09
2017-08-30T16:07:26.307Z,55.10
2017-08-30T16:09:54.106Z,55.52
2017-08-30T16:12:22.015Z,54.22
2017-08-30T16:14:52.125Z,55.64
2017-08-30T16:17:20.340Z,55.88
2017-08-30T16:19:48.209Z,56.37
2017-08-30T16:22:16.183Z,56.19
2017-08-30T16:24:43.922Z,56.04
2017-08-30T16:27:11.724Z,56.69
2017-08-30T16:29:39.488Z,56.76
2017-08-30T16:32:07.376Z,58.15
2017-08-30T16:34:35.209Z,58.37
2017-08-30T16:37:03.002Z,58.21
2017-08-30T16:39:30.774Z,58.56
2017-08-30T16:41:58.622Z,57.67
2017-08-30T16:44:26.485Z,57.77
2017-08-30T16:46:54.322Z,57.47
2017-08-30T16:49:22.207Z,57.66
2017-08-30T16:51:50.060Z,58.44
2017-08-30T16:54:17.949Z,57.84
2017-08-30T16:56:45.808Z,59.44
2017-08-30T16:59:13.697Z,57.74
2017-08-30T17:01:41.602Z,57.51
2017-08-30T17:04:09.447Z,57.96
2017-08-30T17:06:37.380Z,58.53
2017-08-30T17:09:05.343Z,58.93
2017-08-30T17:11:33.312Z,58.96
2017-08-30T17:14:01.181Z,59.67
2017-08-30T17:16:28.988Z,58.63
2017-08-30T17:18:56.916Z,58.65
2017-08-30T17:21:24.847Z,59.32
2017-08-30T17:23:52.626Z,59.30
2017-08-30T17:26:20.521Z,59.48
2017-08-30T17:28:48.365Z,59.59
2017-08-30T17:31:16.285Z,59.74
2017-08-30T17:33:44.129Z,60.42
2017-08-30T17:36:11.941Z,60.61
2017-08-30T17:38:39.669Z,60.53
2017-08-30T17:41:07.493Z,60.67
2017-08-30T17:43:35.281Z,60.52
2017-08-30T17:46:03.140Z,60.50
2017-08-30T17:48:31.042Z,61.04
2017-08-30T17:50:58.902Z,61.67
2017-08-30T17:53:26.707Z,61.45
2017-08-30T17:55:54.475Z,61.47
2017-08-30T17:58:22.335Z,61.29
2017-08-30T18:00:50.076Z,61.60
2017-08-30T18:03:17.898Z,62.24
2017-08-30T18:05:45.652Z,61.53
2017-08-30T18:08:13.447Z,62.26
2017-08-30T18:10:41.246Z,62.82
2017-08-30T18:13:09.084Z,63.04
2017-08-30T18:15:37.015Z,62.98
2017-08-30T18:18:04.941Z,62.92
2017-08-30T18:20:32.784Z,63.45
2017-08-30T18:23:00.566Z,63.32
2017-08-30T18:25:28.429Z,63.04
2017-08-30T18:27:56.345Z,63.33
2017-08-30T18:30:24.168Z,63.06
2017-08-30T18:32:51.949Z,62.86
2017-08-30T18:35:19.750Z,63.28
2017-08-30T18:37:47.482Z,64.98
2017-08-30T18:40:15.274Z,67.41
2017-08-30T18:42:43.000Z,67.88
2017-08-30T18:45:10.836Z,67.84
2017-08-30T18:47:38.592Z,68.43
2017-08-30T18:50:06.682Z,67.50
2017-08-30T18:52:34.491Z,67.65
2017-08-30T18:55:02.305Z,70.50
2017-08-30T18:57:30.120Z,71.72
2017-08-30T18:59:57.952Z,72.99
2017-08-30T19:02:25.746Z,73.05
2017-08-30T19:04:53.521Z,74.15
2017-08-30T19:07:21.342Z,74.37
2017-08-30T19:09:49.204Z,74.24
2017-08-30T19:12:17.137Z,75.31
2017-08-30T19:14:44.978Z,75.39
2017-08-30T19:17:12.906Z,74.99
2017-08-30T19:19:40.823Z,78.90
2017-08-30T19:22:08.673Z,80.91
2017-08-30T19:24:36.525Z,80.08
2017-08-30T19:27:04.432Z,80.35
2017-08-30T19:29:32.220Z,82.42
2017-08-30T19:32:00.109Z,83.52
2017-08-30T19:34:27.923Z,84.17
2017-08-30T19:36:55.735Z,84.16
2017-08-30T19:39:23.519Z,84.00
2017-08-30T19:41:51.294Z,84.28
2017-08-30T19:44:19.077Z,83.43
2017-08-30T19:46:46.857Z,82.75
2017-08-30T19:49:14.692Z,82.81
2017-08-30T19:51:42.573Z,84.13
2017-08-30T19:54:10.548Z,84.05
2017-08-30T19:56:38.326Z,84.38
2017-08-30T19:59:06.120Z,85.20
2017-08-30T20:01:34.004Z,83.79
2017-08-30T20:04:01.772Z,82.84
2017-08-30T20:06:29.604Z,81.10
2017-08-30T20:08:57.407Z,79.69
2017-08-30T20:11:25.244Z,80.14
2017-08-30T20:13:53.031Z,81.89
2017-08-30T20:16:20.861Z,82.81
2017-08-30T20:18:48.696Z,84.24
2017-08-30T20:21:16.677Z,84.66
2017-08-30T20:23:44.437Z,84.69
2017-08-30T20:26:12.354Z,84.22
2017-08-30T20:28:40.329Z,83.64
2017-08-30T20:31:08.243Z,83.37
2017-08-30T20:33:36.161Z,83.86
2017-08-30T20:36:04.069Z,84.11
2017-08-30T20:38:31.937Z,84.93
2017-08-30T20:40:59.747Z,84.91
2017-08-30T20:43:27.596Z,84.57
2017-08-30T20:45:55.409Z,84.97
2017-08-30T20:48:23.276Z,84.73
2017-08-30T20:50:51.108Z,85.72
2017-08-30T20:53:18.860Z,86.15
2017-08-30T20:55:46.651Z,86.33
2017-08-30T20:58:14.521Z,86.83
2017-08-30T21:00:42.372Z,87.15
2017-08-30T21:03:10.245Z,87.07
2017-08-30T21:05:38.020Z,87.44
2017-08-30T21:08:05.920Z,88.66
2017-08-30T21:10:33.684Z,88.69
2017-08-30T21:13:01.596Z,88.70
2017-08-30T21:15:29.361Z,88.74
2017-08-30T21:17:57.134Z,88.64
2017-08-30T21:20:24.973Z,88.72
2017-08-30T21:22:52.795Z,89.35
2017-08-30T21:25:20.650Z,89.22
2017-08-30T21:27:48.449Z,89.22
2017-08-30T21:30:16.329Z,88.61
2017-08-30T21:32:44.068Z,87.88
2017-08-30T21:35:11.874Z,87.23
2017-08-30T21:37:39.766Z,86.79
2017-08-30T21:40:08.074Z,86.81
2017-08-30T21:42:35.925Z,87.04
2017-08-30T21:45:03.828Z,86.60
2017-08-30T21:47:31.579Z,87.01
2017-08-30T21:49:59.467Z,87.69
2017-08-30T21:52:27.324Z,88.61
2017-08-30T21:54:55.200Z,89.26
2017-08-30T21:57:23.093Z,89.28
2017-08-30T21:59:50.940Z,89.41
2017-08-30T22:02:18.840Z,89.50
2017-08-30T22:04:46.586Z,89.87
2017-08-30T22:07:14.455Z,90.69
2017-08-30T22:09:42.321Z,91.06
2017-08-30T22:12:10.206Z,90.91
2017-08-30T22:14:38.064Z,90.57
2017-08-30T22:17:05.973Z,90.37
2017-08-30T22:19:33.820Z,90.21
2017-08-30T22:22:01.784Z,90.05
2017-08-30T22:24:29.637Z,90.01
2017-08-30T22:26:57.386Z,89.56
2017-08-30T22:29:25.292Z,89.42
2017-08-30T22:31:53.182Z,89.27
2017-08-30T22:34:21.056Z,89.60
2017-08-30T22:36:48.905Z,90.10
2017-08-30T22:39:16.783Z,90.47
2017-08-30T22:41:44.667Z,90.85
2017-08-30T22:44:12.589Z,91.15
2017-08-30T22:46:40.452Z,91.18
2017-08-30T22:49:08.339Z,91.29
2017-08-30T22:51:36.213Z,91.73
2017-08-30T22:54:04.121Z,92.09
2017-08-30T22:56:31.959Z,92.43
2017-08-30T22:58:59.813Z,92.67
2017-08-30T23:01:27.706Z,92.66
2017-08-30T23:03:55.561Z,92.81
2017-08-30T23:06:23.447Z,92.97
2017-08-30T23:08:51.302Z,93.01
2017-08-30T23:11:19.192Z,93.22
2017-08-30T23:13:47.056Z,93.43
2017-08-30T23:16:14.967Z,93.54
2017-08-30T23:18:42.825Z,93.62
2017-08-30T23:21:10.751Z,93.64
2017-08-30T23:23:38.600Z,93.66
2017-08-30T23:26:06.485Z,93.70
2017-08-30T23:28:34.341Z,93.67
2017-08-30T23:31:02.211Z,93.71
2017-08-30T23:33:30.073Z,93.79
2017-08-30T23:35:57.933Z,93.74
2017-08-30T23:38:25.821Z,93.65
2017-08-30T23:40:53.590Z,93.70
2017-08-30T23:43:21.420Z,93.63
2017-08-30T23:45:49.269Z,93.58
2017-08-30T23:48:17.208Z,93.68
2017-08-30T23:50:45.051Z,93.74
2017-08-30T23:53:12.940Z,93.94
2017-08-30T23:55:40.841Z,93.93
2017-08-30T23:58:08.712Z,94.01
